sensor_id;sensor_type;location;lat;lon;timestamp;P1;durP1;ratioP1;P2;durP2;ratioP2
41925;SDS011;27615;51.826;5.692;2022-09-09T00:02:00;4.57;;;3.17;;
41925;SDS011;27615;51.826;5.692;2022-09-09T00:05:26;4.88;;;2.80;;
41925;SDS011;27615;51.826;5.692;2022-09-09T00:07:48;4.53;;;2.35;;
41925;SDS011;27615;51.826;5.692;2022-09-09T00:10:27;5.05;;;3.10;;
41925;SDS011;27615;51.826;5.692;2022-09-09T00:12:57;5.22;;;2.88;;
41925;SDS011;27615;51.826;5.692;2022-09-09T00:15:28;5.55;;;2.85;;
41925;SDS011;27615;51.826;5.692;2022-09-09T00:18:07;5.18;;;3.38;;
41925;SDS011;27615;51.826;5.692;2022-09-09T00:21:07;4.10;;;2.40;;
41925;SDS011;27615;51.826;5.692;2022-09-09T00:23:38;3.67;;;2.50;;
41925;SDS011;27615;51.826;5.692;2022-09-09T00:26:11;5.38;;;2.15;;
41925;SDS011;27615;51.826;5.692;2022-09-09T00:31:51;3.42;;;1.83;;
41925;SDS011;27615;51.826;5.692;2022-09-09T00:34:22;3.75;;;1.95;;
41925;SDS011;27615;51.826;5.692;2022-09-09T00:36:50;3.08;;;1.67;;
41925;SDS011;27615;51.826;5.692;2022-09-09T00:42:02;5.00;;;1.75;;
41925;SDS011;27615;51.826;5.692;2022-09-09T00:44:52;3.08;;;1.83;;
41925;SDS011;27615;51.826;5.692;2022-09-09T00:47:27;3.55;;;1.90;;
41925;SDS011;27615;51.826;5.692;2022-09-09T00:50:23;2.58;;;1.60;;
41925;SDS011;27615;51.826;5.692;2022-09-09T00:55:54;3.78;;;1.83;;
41925;SDS011;27615;51.826;5.692;2022-09-09T00:58:30;2.75;;;1.70;;
41925;SDS011;27615;51.826;5.692;2022-09-09T01:00:57;3.22;;;2.38;;
41925;SDS011;27615;51.826;5.692;2022-09-09T01:06:19;4.18;;;1.83;;
41925;SDS011;27615;51.826;5.692;2022-09-09T01:17:22;3.15;;;1.95;;
41925;SDS011;27615;51.826;5.692;2022-09-09T01:20:36;4.32;;;2.35;;
41925;SDS011;27615;51.826;5.692;2022-09-09T01:28:10;5.50;;;2.50;;
41925;SDS011;27615;51.826;5.692;2022-09-09T01:30:41;3.70;;;2.30;;
41925;SDS011;27615;51.826;5.692;2022-09-09T01:33:07;3.20;;;2.55;;
41925;SDS011;27615;51.826;5.692;2022-09-09T01:38:18;5.95;;;2.85;;
41925;SDS011;27615;51.826;5.692;2022-09-09T01:40:44;3.35;;;2.25;;
41925;SDS011;27615;51.826;5.692;2022-09-09T01:43:10;3.05;;;2.45;;
41925;SDS011;27615;51.826;5.692;2022-09-09T01:45:35;6.43;;;2.90;;
41925;SDS011;27615;51.826;5.692;2022-09-09T01:48:05;2.67;;;2.40;;
41925;SDS011;27615;51.826;5.692;2022-09-09T01:50:54;3.95;;;2.83;;
41925;SDS011;27615;51.826;5.692;2022-09-09T01:53:27;5.28;;;2.97;;
41925;SDS011;27615;51.826;5.692;2022-09-09T02:04:11;3.25;;;2.63;;
41925;SDS011;27615;51.826;5.692;2022-09-09T02:06:53;4.55;;;3.15;;
41925;SDS011;27615;51.826;5.692;2022-09-09T02:09:30;2.92;;;2.60;;
41925;SDS011;27615;51.826;5.692;2022-09-09T02:12:05;3.60;;;3.08;;
41925;SDS011;27615;51.826;5.692;2022-09-09T02:14:41;5.60;;;2.45;;
41925;SDS011;27615;51.826;5.692;2022-09-09T02:17:16;7.82;;;3.20;;
41925;SDS011;27615;51.826;5.692;2022-09-09T02:19:58;3.30;;;2.93;;
41925;SDS011;27615;51.826;5.692;2022-09-09T02:22:39;3.92;;;2.90;;
41925;SDS011;27615;51.826;5.692;2022-09-09T02:25:10;4.55;;;2.75;;
41925;SDS011;27615;51.826;5.692;2022-09-09T02:28:06;3.40;;;2.85;;
41925;SDS011;27615;51.826;5.692;2022-09-09T02:33:09;3.13;;;2.83;;
41925;SDS011;27615;51.826;5.692;2022-09-09T02:38:48;2.75;;;2.47;;
41925;SDS011;27615;51.826;5.692;2022-09-09T02:41:17;2.95;;;2.60;;
41925;SDS011;27615;51.826;5.692;2022-09-09T02:43:49;3.17;;;2.83;;
41925;SDS011;27615;51.826;5.692;2022-09-09T02:49:25;4.32;;;2.55;;
41925;SDS011;27615;51.826;5.692;2022-09-09T02:52:12;3.83;;;2.70;;
41925;SDS011;27615;51.826;5.692;2022-09-09T02:54:42;4.05;;;2.90;;
41925;SDS011;27615;51.826;5.692;2022-09-09T02:57:19;5.00;;;2.90;;
41925;SDS011;27615;51.826;5.692;2022-09-09T02:59:55;6.00;;;3.40;;
41925;SDS011;27615;51.826;5.692;2022-09-09T03:02:26;3.90;;;2.92;;
41925;SDS011;27615;51.826;5.692;2022-09-09T03:04:57;8.50;;;3.50;;
41925;SDS011;27615;51.826;5.692;2022-09-09T03:07:22;4.50;;;3.50;;
41925;SDS011;27615;51.826;5.692;2022-09-09T03:09:48;4.60;;;2.80;;
41925;SDS011;27615;51.826;5.692;2022-09-09T03:12:14;6.18;;;2.83;;
41925;SDS011;27615;51.826;5.692;2022-09-09T03:14:40;4.20;;;2.97;;
41925;SDS011;27615;51.826;5.692;2022-09-09T03:17:05;3.42;;;2.80;;
41925;SDS011;27615;51.826;5.692;2022-09-09T03:19:42;3.63;;;2.90;;
41925;SDS011;27615;51.826;5.692;2022-09-09T03:22:09;3.72;;;2.95;;
41925;SDS011;27615;51.826;5.692;2022-09-09T03:24:36;3.75;;;2.70;;
41925;SDS011;27615;51.826;5.692;2022-09-09T03:30:03;6.80;;;2.80;;
41925;SDS011;27615;51.826;5.692;2022-09-09T03:32:32;5.78;;;2.60;;
41925;SDS011;27615;51.826;5.692;2022-09-09T03:35:11;4.80;;;2.90;;
41925;SDS011;27615;51.826;5.692;2022-09-09T03:37:54;8.73;;;3.35;;
41925;SDS011;27615;51.826;5.692;2022-09-09T03:43:51;6.05;;;3.25;;
41925;SDS011;27615;51.826;5.692;2022-09-09T03:46:17;11.43;;;4.25;;
41925;SDS011;27615;51.826;5.692;2022-09-09T03:48:44;7.28;;;3.00;;
41925;SDS011;27615;51.826;5.692;2022-09-09T03:51:09;9.93;;;3.72;;
41925;SDS011;27615;51.826;5.692;2022-09-09T03:53:38;5.72;;;3.08;;
41925;SDS011;27615;51.826;5.692;2022-09-09T03:56:35;4.03;;;3.05;;
41925;SDS011;27615;51.826;5.692;2022-09-09T03:59:01;5.88;;;3.65;;
41925;SDS011;27615;51.826;5.692;2022-09-09T04:01:27;5.43;;;3.38;;
41925;SDS011;27615;51.826;5.692;2022-09-09T04:03:56;8.75;;;4.57;;
41925;SDS011;27615;51.826;5.692;2022-09-09T04:06:37;9.15;;;3.65;;
41925;SDS011;27615;51.826;5.692;2022-09-09T04:09:06;6.40;;;3.38;;
41925;SDS011;27615;51.826;5.692;2022-09-09T04:11:58;5.93;;;3.42;;
41925;SDS011;27615;51.826;5.692;2022-09-09T04:14:24;5.05;;;3.22;;
41925;SDS011;27615;51.826;5.692;2022-09-09T04:16:59;7.47;;;3.95;;
41925;SDS011;27615;51.826;5.692;2022-09-09T04:19:24;8.85;;;4.00;;
41925;SDS011;27615;51.826;5.692;2022-09-09T04:21:50;10.10;;;3.53;;
41925;SDS011;27615;51.826;5.692;2022-09-09T04:24:19;5.18;;;3.45;;
41925;SDS011;27615;51.826;5.692;2022-09-09T04:26:44;7.35;;;3.47;;
41925;SDS011;27615;51.826;5.692;2022-09-09T04:29:10;8.82;;;3.30;;
41925;SDS011;27615;51.826;5.692;2022-09-09T04:31:36;6.35;;;3.67;;
41925;SDS011;27615;51.826;5.692;2022-09-09T04:34:02;5.10;;;3.67;;
41925;SDS011;27615;51.826;5.692;2022-09-09T04:36:30;7.22;;;3.88;;
41925;SDS011;27615;51.826;5.692;2022-09-09T04:38:58;7.93;;;3.70;;
41925;SDS011;27615;51.826;5.692;2022-09-09T04:41:23;7.20;;;4.43;;
41925;SDS011;27615;51.826;5.692;2022-09-09T04:43:49;7.43;;;3.80;;
41925;SDS011;27615;51.826;5.692;2022-09-09T04:46:24;7.70;;;4.03;;
41925;SDS011;27615;51.826;5.692;2022-09-09T04:48:56;6.82;;;3.78;;
41925;SDS011;27615;51.826;5.692;2022-09-09T04:51:25;8.05;;;3.38;;
41925;SDS011;27615;51.826;5.692;2022-09-09T04:53:50;9.57;;;4.18;;
41925;SDS011;27615;51.826;5.692;2022-09-09T04:56:18;7.78;;;3.50;;
41925;SDS011;27615;51.826;5.692;2022-09-09T04:58:44;7.97;;;4.10;;
41925;SDS011;27615;51.826;5.692;2022-09-09T05:01:14;8.13;;;3.70;;
41925;SDS011;27615;51.826;5.692;2022-09-09T05:03:45;9.20;;;4.00;;
41925;SDS011;27615;51.826;5.692;2022-09-09T05:06:12;6.13;;;3.83;;
41925;SDS011;27615;51.826;5.692;2022-09-09T05:08:40;6.45;;;3.65;;
41925;SDS011;27615;51.826;5.692;2022-09-09T05:14:01;6.88;;;3.25;;
41925;SDS011;27615;51.826;5.692;2022-09-09T05:16:28;8.20;;;3.03;;
41925;SDS011;27615;51.826;5.692;2022-09-09T05:19:10;7.32;;;3.30;;
41925;SDS011;27615;51.826;5.692;2022-09-09T05:21:51;5.97;;;3.10;;
41925;SDS011;27615;51.826;5.692;2022-09-09T05:24:16;6.68;;;3.42;;
41925;SDS011;27615;51.826;5.692;2022-09-09T05:26:48;7.20;;;3.38;;
41925;SDS011;27615;51.826;5.692;2022-09-09T05:29:42;8.07;;;3.15;;
41925;SDS011;27615;51.826;5.692;2022-09-09T05:32:11;9.07;;;3.40;;
41925;SDS011;27615;51.826;5.692;2022-09-09T05:34:58;6.13;;;2.75;;
41925;SDS011;27615;51.826;5.692;2022-09-09T05:37:23;9.63;;;3.13;;
41925;SDS011;27615;51.826;5.692;2022-09-09T05:39:52;7.82;;;2.78;;
41925;SDS011;27615;51.826;5.692;2022-09-09T05:42:40;7.05;;;2.97;;
41925;SDS011;27615;51.826;5.692;2022-09-09T05:45:35;8.40;;;3.08;;
41925;SDS011;27615;51.826;5.692;2022-09-09T05:48:01;8.10;;;3.38;;
41925;SDS011;27615;51.826;5.692;2022-09-09T05:53:50;8.70;;;3.28;;
41925;SDS011;27615;51.826;5.692;2022-09-09T06:06:23;6.97;;;2.35;;
41925;SDS011;27615;51.826;5.692;2022-09-09T06:08:55;6.72;;;2.42;;
41925;SDS011;27615;51.826;5.692;2022-09-09T06:11:37;8.90;;;2.83;;
41925;SDS011;27615;51.826;5.692;2022-09-09T06:14:04;8.18;;;2.88;;
41925;SDS011;27615;51.826;5.692;2022-09-09T06:16:30;6.70;;;2.25;;
41925;SDS011;27615;51.826;5.692;2022-09-09T06:19:00;7.40;;;2.13;;
41925;SDS011;27615;51.826;5.692;2022-09-09T06:21:31;8.38;;;2.53;;
41925;SDS011;27615;51.826;5.692;2022-09-09T06:24:12;9.73;;;2.85;;
41925;SDS011;27615;51.826;5.692;2022-09-09T06:31:11;5.53;;;2.33;;
41925;SDS011;27615;51.826;5.692;2022-09-09T06:33:37;10.27;;;2.83;;
41925;SDS011;27615;51.826;5.692;2022-09-09T06:36:06;9.63;;;2.23;;
41925;SDS011;27615;51.826;5.692;2022-09-09T06:38:35;10.27;;;2.45;;
41925;SDS011;27615;51.826;5.692;2022-09-09T06:41:00;6.18;;;2.13;;
41925;SDS011;27615;51.826;5.692;2022-09-09T06:43:27;10.23;;;2.92;;
41925;SDS011;27615;51.826;5.692;2022-09-09T06:46:00;7.43;;;2.60;;
41925;SDS011;27615;51.826;5.692;2022-09-09T06:48:29;5.85;;;2.72;;
41925;SDS011;27615;51.826;5.692;2022-09-09T06:51:04;7.32;;;2.30;;
41925;SDS011;27615;51.826;5.692;2022-09-09T07:01:05;7.10;;;2.38;;
41925;SDS011;27615;51.826;5.692;2022-09-09T07:03:31;6.78;;;2.47;;
41925;SDS011;27615;51.826;5.692;2022-09-09T07:06:38;10.80;;;3.00;;
41925;SDS011;27615;51.826;5.692;2022-09-09T07:09:08;8.25;;;3.15;;
41925;SDS011;27615;51.826;5.692;2022-09-09T07:11:39;10.93;;;3.03;;
41925;SDS011;27615;51.826;5.692;2022-09-09T07:14:09;10.82;;;2.90;;
41925;SDS011;27615;51.826;5.692;2022-09-09T07:16:39;8.35;;;2.25;;
41925;SDS011;27615;51.826;5.692;2022-09-09T07:19:05;8.82;;;2.67;;
41925;SDS011;27615;51.826;5.692;2022-09-09T07:21:31;10.30;;;2.50;;
41925;SDS011;27615;51.826;5.692;2022-09-09T07:23:58;10.20;;;2.97;;
41925;SDS011;27615;51.826;5.692;2022-09-09T07:26:25;9.18;;;2.97;;
41925;SDS011;27615;51.826;5.692;2022-09-09T07:28:54;11.43;;;2.63;;
41925;SDS011;27615;51.826;5.692;2022-09-09T07:31:26;8.48;;;3.25;;
41925;SDS011;27615;51.826;5.692;2022-09-09T07:36:34;10.05;;;2.80;;
41925;SDS011;27615;51.826;5.692;2022-09-09T07:42:47;5.68;;;2.33;;
41925;SDS011;27615;51.826;5.692;2022-09-09T07:45:12;10.43;;;2.50;;
41925;SDS011;27615;51.826;5.692;2022-09-09T07:48:09;6.97;;;2.13;;
41925;SDS011;27615;51.826;5.692;2022-09-09T07:50:43;7.93;;;2.88;;
41925;SDS011;27615;51.826;5.692;2022-09-09T07:53:45;7.53;;;2.35;;
41925;SDS011;27615;51.826;5.692;2022-09-09T07:56:15;8.05;;;2.25;;
41925;SDS011;27615;51.826;5.692;2022-09-09T07:58:42;12.27;;;3.13;;
41925;SDS011;27615;51.826;5.692;2022-09-09T08:03:52;7.28;;;2.13;;
41925;SDS011;27615;51.826;5.692;2022-09-09T08:10:14;7.57;;;2.08;;
41925;SDS011;27615;51.826;5.692;2022-09-09T08:12:41;9.52;;;2.50;;
41925;SDS011;27615;51.826;5.692;2022-09-09T08:15:06;8.80;;;1.95;;
41925;SDS011;27615;51.826;5.692;2022-09-09T08:17:32;7.22;;;2.08;;
41925;SDS011;27615;51.826;5.692;2022-09-09T08:19:57;6.43;;;1.80;;
41925;SDS011;27615;51.826;5.692;2022-09-09T08:22:29;5.28;;;1.40;;
41925;SDS011;27615;51.826;5.692;2022-09-09T08:24:55;9.63;;;1.70;;
41925;SDS011;27615;51.826;5.692;2022-09-09T08:27:21;9.45;;;1.92;;
41925;SDS011;27615;51.826;5.692;2022-09-09T08:29:47;10.07;;;1.55;;
41925;SDS011;27615;51.826;5.692;2022-09-09T08:32:13;6.82;;;1.30;;
41925;SDS011;27615;51.826;5.692;2022-09-09T08:34:38;6.30;;;1.00;;
41925;SDS011;27615;51.826;5.692;2022-09-09T08:37:06;6.30;;;1.10;;
41925;SDS011;27615;51.826;5.692;2022-09-09T08:39:31;8.38;;;1.70;;
41925;SDS011;27615;51.826;5.692;2022-09-09T08:42:05;11.70;;;1.70;;
41925;SDS011;27615;51.826;5.692;2022-09-09T08:48:19;4.05;;;1.10;;
41925;SDS011;27615;51.826;5.692;2022-09-09T08:51:06;5.93;;;1.25;;
41925;SDS011;27615;51.826;5.692;2022-09-09T08:53:38;5.70;;;1.00;;
41925;SDS011;27615;51.826;5.692;2022-09-09T08:56:14;7.05;;;1.70;;
41925;SDS011;27615;51.826;5.692;2022-09-09T08:58:47;8.18;;;1.42;;
41925;SDS011;27615;51.826;5.692;2022-09-09T09:01:22;8.25;;;1.40;;
41925;SDS011;27615;51.826;5.692;2022-09-09T09:04:00;7.25;;;1.60;;
41925;SDS011;27615;51.826;5.692;2022-09-09T09:10:10;6.65;;;1.45;;
41925;SDS011;27615;51.826;5.692;2022-09-09T09:12:35;10.13;;;3.00;;
41925;SDS011;27615;51.826;5.692;2022-09-09T09:15:23;8.65;;;1.70;;
41925;SDS011;27615;51.826;5.692;2022-09-09T09:17:51;8.13;;;1.85;;
41925;SDS011;27615;51.826;5.692;2022-09-09T09:20:18;6.10;;;1.10;;
41925;SDS011;27615;51.826;5.692;2022-09-09T09:22:52;5.15;;;1.25;;
41925;SDS011;27615;51.826;5.692;2022-09-09T09:25:27;6.10;;;1.55;;
41925;SDS011;27615;51.826;5.692;2022-09-09T09:28:00;7.53;;;1.50;;
41925;SDS011;27615;51.826;5.692;2022-09-09T09:30:28;7.72;;;1.08;;
41925;SDS011;27615;51.826;5.692;2022-09-09T09:33:16;4.63;;;1.43;;
41925;SDS011;27615;51.826;5.692;2022-09-09T09:35:49;6.13;;;1.60;;
41925;SDS011;27615;51.826;5.692;2022-09-09T09:38:16;10.57;;;1.70;;
41925;SDS011;27615;51.826;5.692;2022-09-09T09:40:54;8.93;;;1.48;;
41925;SDS011;27615;51.826;5.692;2022-09-09T09:43:29;7.63;;;1.13;;
41925;SDS011;27615;51.826;5.692;2022-09-09T09:52:55;5.18;;;1.15;;
41925;SDS011;27615;51.826;5.692;2022-09-09T09:55:22;11.30;;;1.48;;
41925;SDS011;27615;51.826;5.692;2022-09-09T09:57:49;6.57;;;1.38;;
41925;SDS011;27615;51.826;5.692;2022-09-09T10:00:22;8.07;;;1.73;;
41925;SDS011;27615;51.826;5.692;2022-09-09T10:02:48;7.75;;;1.58;;
41925;SDS011;27615;51.826;5.692;2022-09-09T10:05:18;8.82;;;1.42;;
41925;SDS011;27615;51.826;5.692;2022-09-09T10:08:02;6.00;;;1.45;;
41925;SDS011;27615;51.826;5.692;2022-09-09T10:13:18;5.03;;;1.10;;
41925;SDS011;27615;51.826;5.692;2022-09-09T10:29:57;8.30;;;1.52;;
41925;SDS011;27615;51.826;5.692;2022-09-09T10:36:20;5.63;;;1.10;;
41925;SDS011;27615;51.826;5.692;2022-09-09T10:38:58;5.68;;;1.63;;
41925;SDS011;27615;51.826;5.692;2022-09-09T10:44:28;7.60;;;1.40;;
41925;SDS011;27615;51.826;5.692;2022-09-09T10:55:41;7.22;;;1.70;;
41925;SDS011;27615;51.826;5.692;2022-09-09T10:58:20;5.35;;;1.20;;
41925;SDS011;27615;51.826;5.692;2022-09-09T11:00:54;6.57;;;2.13;;
41925;SDS011;27615;51.826;5.692;2022-09-09T11:03:30;6.47;;;1.75;;
41925;SDS011;27615;51.826;5.692;2022-09-09T11:13:39;7.43;;;2.17;;
41925;SDS011;27615;51.826;5.692;2022-09-09T11:18:39;4.53;;;1.27;;
41925;SDS011;27615;51.826;5.692;2022-09-09T11:21:10;5.63;;;1.80;;
41925;SDS011;27615;51.826;5.692;2022-09-09T11:23:43;5.53;;;1.52;;
41925;SDS011;27615;51.826;5.692;2022-09-09T11:26:18;8.32;;;2.17;;
41925;SDS011;27615;51.826;5.692;2022-09-09T11:29:23;10.73;;;1.50;;
41925;SDS011;27615;51.826;5.692;2022-09-09T11:35:07;6.32;;;1.77;;
41925;SDS011;27615;51.826;5.692;2022-09-09T11:42:45;10.35;;;2.00;;
41925;SDS011;27615;51.826;5.692;2022-09-09T11:45:20;6.00;;;1.75;;
41925;SDS011;27615;51.826;5.692;2022-09-09T11:47:53;4.95;;;1.95;;
41925;SDS011;27615;51.826;5.692;2022-09-09T11:52:47;7.85;;;2.25;;
41925;SDS011;27615;51.826;5.692;2022-09-09T11:58:04;5.95;;;1.52;;
41925;SDS011;27615;51.826;5.692;2022-09-09T12:08:57;7.32;;;1.63;;
41925;SDS011;27615;51.826;5.692;2022-09-09T12:11:32;7.90;;;1.70;;
41925;SDS011;27615;51.826;5.692;2022-09-09T12:13:59;6.90;;;1.85;;
41925;SDS011;27615;51.826;5.692;2022-09-09T12:16:36;4.95;;;1.20;;
41925;SDS011;27615;51.826;5.692;2022-09-09T12:19:04;6.40;;;1.70;;
41925;SDS011;27615;51.826;5.692;2022-09-09T12:21:39;5.28;;;1.30;;
41925;SDS011;27615;51.826;5.692;2022-09-09T12:27:17;4.55;;;1.33;;
41925;SDS011;27615;51.826;5.692;2022-09-09T12:32:25;5.50;;;1.52;;
41925;SDS011;27615;51.826;5.692;2022-09-09T12:35:03;5.97;;;1.60;;
41925;SDS011;27615;51.826;5.692;2022-09-09T12:37:46;4.43;;;1.42;;
41925;SDS011;27615;51.826;5.692;2022-09-09T12:40:23;3.95;;;1.83;;
41925;SDS011;27615;51.826;5.692;2022-09-09T12:42:50;5.97;;;1.70;;
41925;SDS011;27615;51.826;5.692;2022-09-09T12:47:50;4.88;;;1.30;;
41925;SDS011;27615;51.826;5.692;2022-09-09T12:52:46;6.53;;;1.87;;
41925;SDS011;27615;51.826;5.692;2022-09-09T12:55:21;4.15;;;1.58;;
41925;SDS011;27615;51.826;5.692;2022-09-09T12:57:50;5.43;;;1.95;;
41925;SDS011;27615;51.826;5.692;2022-09-09T13:00:17;4.70;;;1.52;;
41925;SDS011;27615;51.826;5.692;2022-09-09T13:02:54;5.43;;;1.70;;
41925;SDS011;27615;51.826;5.692;2022-09-09T13:05:25;5.63;;;2.05;;
41925;SDS011;27615;51.826;5.692;2022-09-09T13:08:10;5.10;;;1.63;;
41925;SDS011;27615;51.826;5.692;2022-09-09T13:10:44;6.93;;;2.08;;
41925;SDS011;27615;51.826;5.692;2022-09-09T13:13:15;5.53;;;2.05;;
41925;SDS011;27615;51.826;5.692;2022-09-09T13:15:48;5.10;;;1.35;;
41925;SDS011;27615;51.826;5.692;2022-09-09T13:18:16;5.25;;;1.40;;
41925;SDS011;27615;51.826;5.692;2022-09-09T13:20:51;5.72;;;2.08;;
41925;SDS011;27615;51.826;5.692;2022-09-09T13:23:18;7.20;;;2.10;;
41925;SDS011;27615;51.826;5.692;2022-09-09T13:25:58;5.35;;;1.50;;
41925;SDS011;27615;51.826;5.692;2022-09-09T13:28:27;5.47;;;1.52;;
41925;SDS011;27615;51.826;5.692;2022-09-09T13:30:58;3.97;;;1.17;;
41925;SDS011;27615;51.826;5.692;2022-09-09T13:33:32;6.32;;;1.25;;
41925;SDS011;27615;51.826;5.692;2022-09-09T13:36:05;5.82;;;1.63;;
41925;SDS011;27615;51.826;5.692;2022-09-09T13:38:35;4.75;;;1.35;;
41925;SDS011;27615;51.826;5.692;2022-09-09T13:41:04;7.45;;;1.10;;
41925;SDS011;27615;51.826;5.692;2022-09-09T13:43:34;3.53;;;1.05;;
41925;SDS011;27615;51.826;5.692;2022-09-09T13:48:58;7.32;;;1.27;;
41925;SDS011;27615;51.826;5.692;2022-09-09T13:51:28;4.35;;;1.85;;
41925;SDS011;27615;51.826;5.692;2022-09-09T13:54:00;4.90;;;1.67;;
41925;SDS011;27615;51.826;5.692;2022-09-09T13:56:26;3.55;;;1.02;;
41925;SDS011;27615;51.826;5.692;2022-09-09T13:58:51;4.45;;;1.42;;
41925;SDS011;27615;51.826;5.692;2022-09-09T14:01:17;4.53;;;1.40;;
41925;SDS011;27615;51.826;5.692;2022-09-09T14:03:42;4.85;;;1.60;;
41925;SDS011;27615;51.826;5.692;2022-09-09T14:06:09;3.83;;;1.25;;
41925;SDS011;27615;51.826;5.692;2022-09-09T14:08:38;3.45;;;1.30;;
41925;SDS011;27615;51.826;5.692;2022-09-09T14:11:07;4.15;;;1.25;;
41925;SDS011;27615;51.826;5.692;2022-09-09T14:13:37;4.95;;;1.30;;
41925;SDS011;27615;51.826;5.692;2022-09-09T14:16:03;5.18;;;1.50;;
41925;SDS011;27615;51.826;5.692;2022-09-09T14:18:29;4.28;;;1.27;;
41925;SDS011;27615;51.826;5.692;2022-09-09T14:20:54;7.82;;;1.70;;
41925;SDS011;27615;51.826;5.692;2022-09-09T14:23:20;4.57;;;1.25;;
41925;SDS011;27615;51.826;5.692;2022-09-09T14:25:46;4.63;;;1.33;;
41925;SDS011;27615;51.826;5.692;2022-09-09T14:28:13;3.50;;;1.58;;
41925;SDS011;27615;51.826;5.692;2022-09-09T14:30:40;5.43;;;1.58;;
41925;SDS011;27615;51.826;5.692;2022-09-09T14:33:07;4.57;;;1.58;;
41925;SDS011;27615;51.826;5.692;2022-09-09T14:35:34;4.55;;;1.42;;
41925;SDS011;27615;51.826;5.692;2022-09-09T14:38:01;4.35;;;1.33;;
41925;SDS011;27615;51.826;5.692;2022-09-09T14:40:27;5.20;;;1.20;;
41925;SDS011;27615;51.826;5.692;2022-09-09T14:42:55;6.15;;;1.75;;
41925;SDS011;27615;51.826;5.692;2022-09-09T14:45:21;4.68;;;1.40;;
41925;SDS011;27615;51.826;5.692;2022-09-09T14:47:49;6.68;;;1.92;;
41925;SDS011;27615;51.826;5.692;2022-09-09T14:50:15;6.63;;;2.10;;
41925;SDS011;27615;51.826;5.692;2022-09-09T14:52:41;4.85;;;1.20;;
41925;SDS011;27615;51.826;5.692;2022-09-09T14:55:07;5.57;;;1.30;;
41925;SDS011;27615;51.826;5.692;2022-09-09T14:57:33;4.25;;;1.25;;
41925;SDS011;27615;51.826;5.692;2022-09-09T15:00:00;4.72;;;1.20;;
41925;SDS011;27615;51.826;5.692;2022-09-09T15:02:27;2.30;;;0.80;;
41925;SDS011;27615;51.826;5.692;2022-09-09T15:04:57;5.32;;;1.25;;
41925;SDS011;27615;51.826;5.692;2022-09-09T15:07:25;3.70;;;0.90;;
41925;SDS011;27615;51.826;5.692;2022-09-09T15:09:52;4.20;;;0.70;;
41925;SDS011;27615;51.826;5.692;2022-09-09T15:12:18;3.95;;;0.98;;
41925;SDS011;27615;51.826;5.692;2022-09-09T15:14:44;2.50;;;0.90;;
41925;SDS011;27615;51.826;5.692;2022-09-09T15:17:10;5.05;;;0.80;;
41925;SDS011;27615;51.826;5.692;2022-09-09T15:19:36;3.38;;;0.80;;
41925;SDS011;27615;51.826;5.692;2022-09-09T15:22:04;5.00;;;0.88;;
41925;SDS011;27615;51.826;5.692;2022-09-09T15:24:31;4.43;;;0.75;;
41925;SDS011;27615;51.826;5.692;2022-09-09T15:26:57;2.78;;;0.82;;
41925;SDS011;27615;51.826;5.692;2022-09-09T15:29:23;3.97;;;0.90;;
41925;SDS011;27615;51.826;5.692;2022-09-09T15:31:49;2.72;;;0.77;;
41925;SDS011;27615;51.826;5.692;2022-09-09T15:34:15;2.97;;;0.80;;
41925;SDS011;27615;51.826;5.692;2022-09-09T15:36:41;3.15;;;0.80;;
41925;SDS011;27615;51.826;5.692;2022-09-09T15:39:12;4.22;;;0.80;;
41925;SDS011;27615;51.826;5.692;2022-09-09T15:41:46;4.05;;;0.70;;
41925;SDS011;27615;51.826;5.692;2022-09-09T15:44:13;4.10;;;1.10;;
41925;SDS011;27615;51.826;5.692;2022-09-09T15:46:41;3.70;;;1.00;;
41925;SDS011;27615;51.826;5.692;2022-09-09T15:51:42;3.25;;;0.70;;
41925;SDS011;27615;51.826;5.692;2022-09-09T15:54:13;2.78;;;1.05;;
41925;SDS011;27615;51.826;5.692;2022-09-09T15:56:45;1.70;;;0.60;;
41925;SDS011;27615;51.826;5.692;2022-09-09T15:59:13;1.92;;;0.70;;
41925;SDS011;27615;51.826;5.692;2022-09-09T16:01:39;1.15;;;0.43;;
41925;SDS011;27615;51.826;5.692;2022-09-09T16:04:06;3.00;;;0.63;;
41925;SDS011;27615;51.826;5.692;2022-09-09T16:06:32;1.52;;;0.50;;
41925;SDS011;27615;51.826;5.692;2022-09-09T16:08:58;2.10;;;0.70;;
41925;SDS011;27615;51.826;5.692;2022-09-09T16:11:27;2.70;;;0.70;;
41925;SDS011;27615;51.826;5.692;2022-09-09T16:13:56;2.90;;;0.70;;
41925;SDS011;27615;51.826;5.692;2022-09-09T16:16:23;2.03;;;0.60;;
41925;SDS011;27615;51.826;5.692;2022-09-09T16:18:52;2.93;;;1.43;;
41925;SDS011;27615;51.826;5.692;2022-09-09T16:21:29;2.25;;;0.65;;
41925;SDS011;27615;51.826;5.692;2022-09-09T16:23:56;2.42;;;0.60;;
41925;SDS011;27615;51.826;5.692;2022-09-09T16:26:24;3.40;;;0.73;;
41925;SDS011;27615;51.826;5.692;2022-09-09T16:28:50;1.75;;;0.85;;
41925;SDS011;27615;51.826;5.692;2022-09-09T16:31:17;1.67;;;0.60;;
41925;SDS011;27615;51.826;5.692;2022-09-09T16:33:44;1.85;;;0.80;;
41925;SDS011;27615;51.826;5.692;2022-09-09T16:36:12;2.00;;;0.90;;
41925;SDS011;27615;51.826;5.692;2022-09-09T16:38:39;1.80;;;0.80;;
41925;SDS011;27615;51.826;5.692;2022-09-09T16:41:05;1.88;;;0.90;;
41925;SDS011;27615;51.826;5.692;2022-09-09T16:43:33;1.85;;;0.80;;
41925;SDS011;27615;51.826;5.692;2022-09-09T16:46:00;0.70;;;0.52;;
41925;SDS011;27615;51.826;5.692;2022-09-09T16:48:27;4.70;;;0.95;;
41925;SDS011;27615;51.826;5.692;2022-09-09T16:51:04;3.60;;;0.88;;
41925;SDS011;27615;51.826;5.692;2022-09-09T16:53:34;2.97;;;0.80;;
41925;SDS011;27615;51.826;5.692;2022-09-09T16:56:06;1.60;;;0.80;;
41925;SDS011;27615;51.826;5.692;2022-09-09T16:58:33;2.70;;;0.82;;
41925;SDS011;27615;51.826;5.692;2022-09-09T17:00:59;3.40;;;1.08;;
41925;SDS011;27615;51.826;5.692;2022-09-09T17:03:26;2.28;;;1.00;;
41925;SDS011;27615;51.826;5.692;2022-09-09T17:05:52;3.47;;;1.20;;
41925;SDS011;27615;51.826;5.692;2022-09-09T17:08:17;5.03;;;1.45;;
41925;SDS011;27615;51.826;5.692;2022-09-09T17:10:43;2.58;;;1.02;;
41925;SDS011;27615;51.826;5.692;2022-09-09T17:13:08;4.60;;;1.35;;
41925;SDS011;27615;51.826;5.692;2022-09-09T17:15:38;1.85;;;1.10;;
41925;SDS011;27615;51.826;5.692;2022-09-09T17:18:07;3.00;;;0.93;;
41925;SDS011;27615;51.826;5.692;2022-09-09T17:20:35;3.88;;;1.52;;
41925;SDS011;27615;51.826;5.692;2022-09-09T17:23:01;2.58;;;1.67;;
41925;SDS011;27615;51.826;5.692;2022-09-09T17:25:27;3.30;;;1.50;;
41925;SDS011;27615;51.826;5.692;2022-09-09T17:27:52;4.82;;;1.80;;
41925;SDS011;27615;51.826;5.692;2022-09-09T17:30:18;3.58;;;1.67;;
41925;SDS011;27615;51.826;5.692;2022-09-09T17:32:44;5.05;;;2.45;;
41925;SDS011;27615;51.826;5.692;2022-09-09T17:35:11;5.47;;;2.20;;
41925;SDS011;27615;51.826;5.692;2022-09-09T17:37:36;4.10;;;1.60;;
41925;SDS011;27615;51.826;5.692;2022-09-09T17:40:02;2.50;;;2.15;;
41925;SDS011;27615;51.826;5.692;2022-09-09T17:42:28;3.63;;;1.70;;
41925;SDS011;27615;51.826;5.692;2022-09-09T17:44:54;3.30;;;2.00;;
41925;SDS011;27615;51.826;5.692;2022-09-09T17:47:19;5.78;;;2.20;;
41925;SDS011;27615;51.826;5.692;2022-09-09T17:49:45;3.85;;;2.13;;
41925;SDS011;27615;51.826;5.692;2022-09-09T17:52:11;4.20;;;2.20;;
41925;SDS011;27615;51.826;5.692;2022-09-09T17:54:36;4.25;;;1.88;;
41925;SDS011;27615;51.826;5.692;2022-09-09T17:57:02;3.67;;;2.28;;
41925;SDS011;27615;51.826;5.692;2022-09-09T17:59:28;4.97;;;2.10;;
41925;SDS011;27615;51.826;5.692;2022-09-09T18:01:53;3.67;;;1.90;;
41925;SDS011;27615;51.826;5.692;2022-09-09T18:04:19;2.60;;;2.00;;
41925;SDS011;27615;51.826;5.692;2022-09-09T18:06:46;5.05;;;3.30;;
41925;SDS011;27615;51.826;5.692;2022-09-09T18:09:14;6.53;;;2.97;;
41925;SDS011;27615;51.826;5.692;2022-09-09T18:11:46;6.60;;;3.92;;
41925;SDS011;27615;51.826;5.692;2022-09-09T18:14:18;5.72;;;3.40;;
41925;SDS011;27615;51.826;5.692;2022-09-09T18:16:46;6.70;;;3.70;;
41925;SDS011;27615;51.826;5.692;2022-09-09T18:19:13;5.97;;;3.78;;